Drawsko — C6XP2 — position and weather

sailwx.info

Track history (hours):
 
Tides and Currents Weather Stations Pressure Air Temp Water Temp Dewpoint Dewpoint Depression Visibility Wind Speed Wind Dir Waves Ship Positions

Drawsko

Last reported at 2017-Nov-09 23:59 UTC. Time now 2017-Nov-19 18:25 UTC.
Position N 49°53' W 004°13'.
Warning: this ship's position is 9 days out of date.

Length 189 m; draft 8 m.

Type: Cargo ship. MMSI: 311017900.

Date/timePositionNaut miles runAvg speedWind from/ knotsBaromVisibWave heightAir tempDewpointWater temp
2017-Nov-09 23:59N 49°53' W 004°13'611.6
2017-Nov-09 23:26N 49°53' W 004°03'511.3
2017-Nov-09 23:00N 49°54' W 003°56'1211.1
2017-Nov-09 21:56N 49°55' W 003°37'511.0
2017-Nov-09 21:29N 49°56' W 003°30'911.4
2017-Nov-09 20:40N 49°57' W 003°15'211.8
2017-Nov-09 20:30N 49°57' W 003°13'611.9
2017-Nov-09 20:00N 49°58' W 003°03'612.6
2017-Nov-09 19:30N 49°59' W 002°54'1013.5
2017-Nov-09 18:45N 50°02' W 002°38'314.3
2017-Nov-09 18:30N 50°03' W 002°33'2215.2
2017-Nov-09 17:04N 50°09' W 002°01'115.3
2017-Nov-09 17:00N 50°10' W 001°59'815.2
2017-Nov-09 16:30N 50°12' W 001°48'714.6
2017-Nov-09 16:00N 50°14' W 001°37'713.9
2017-Nov-09 15:31N 50°16' W 001°26'913.1
2017-Nov-09 14:47N 50°18' W 001°12'3510.4
2017-Nov-09 11:24N 50°27' W 000°19'410.3
2017-Nov-09 11:00N 50°28' W 000°12'510.7
2017-Nov-09 10:30N 50°30' W 000°04'611.3
2017-Nov-09 09:58N 50°32' E 000°04'812.0
2017-Nov-09 09:18N 50°34' E 000°17'412.5
2017-Nov-09 08:57N 50°35' E 000°23'613.0
2017-Nov-09 08:30N 50°37' E 000°32'613.1
2017-Nov-09 08:00N 50°40' E 000°41'713.2
2017-Nov-09 07:30N 50°44' E 000°49'712.9
2017-Nov-09 07:00N 50°48' E 000°57'812.6
2017-Nov-09 06:20N 50°54' E 001°08'412.2
2017-Nov-09 05:59N 50°56' E 001°13'511.5
2017-Nov-09 05:30N 50°60' E 001°20'510.8
2017-Nov-09 05:00N 51°03' E 001°26'510.3
2017-Nov-09 04:30N 51°06' E 001°33'5 9.8
2017-Nov-09 04:00N 51°10' E 001°39'510.1
2017-Nov-09 03:30N 51°13' E 001°44'510.5
2017-Nov-09 03:00N 51°17' E 001°49'611.5
2017-Nov-09 02:30N 51°22' E 001°54'612.3
2017-Nov-09 02:00N 51°27' E 001°60'713.2
2017-Nov-09 01:30N 51°33' E 002°06'714.2
2017-Nov-09 01:00N 51°38' E 002°13'8013.1
2017-Nov-08 18:54N 52°31' E 003°51'511.8
2017-Nov-08 18:30N 52°31' E 003°59'510.1
2017-Nov-08 18:00N 52°32' E 004°07'4 9.0
2017-Nov-08 17:30N 52°31' E 004°14'611.5
2017-Nov-08 17:00N 52°30' E 004°23'3 6.0
2017-Nov-08 16:30N 52°29' E 004°28'4 8.1
2017-Nov-08 16:01N 52°28' E 004°34'1 2.4
2017-Nov-08 15:29N 52°28' E 004°36'0 0.0
2017-Nov-08 14:59N 52°28' E 004°36'0 0.0
2017-Nov-08 14:29N 52°28' E 004°36'0 0.0
2017-Nov-08 13:59N 52°28' E 004°36'0 0.0
2017-Nov-08 13:29N 52°28' E 004°36'0 0.0
2017-Nov-08 12:59N 52°28' E 004°36'0 0.0
2017-Nov-08 12:20N 52°28' E 004°36'0 0.0
2017-Nov-08 11:56N 52°28' E 004°36'0 0.0
2017-Nov-08 11:29N 52°28' E 004°36'0 0.0
2017-Nov-08 10:59N 52°28' E 004°36'0 0.0
2017-Nov-08 10:29N 52°28' E 004°36'0 0.0
2017-Nov-08 09:59N 52°28' E 004°36'0 0.0
2017-Nov-08 09:29N 52°28' E 004°36'0 0.0
2017-Nov-08 08:59N 52°28' E 004°36'0 0.0
2017-Nov-08 08:26N 52°28' E 004°36'0 0.0
2017-Nov-08 07:56N 52°28' E 004°36'0 0.0
2017-Nov-08 07:29N 52°28' E 004°36'0 0.0
2017-Nov-08 06:56N 52°28' E 004°36'0 0.0
2017-Nov-08 06:29N 52°28' E 004°36'0 0.0
2017-Nov-08 05:59N 52°28' E 004°36'0 0.0
2017-Nov-08 05:29N 52°28' E 004°36'0 0.0
2017-Nov-08 04:59N 52°28' E 004°36'0 0.0
2017-Nov-08 04:29N 52°28' E 004°36'0 0.0
2017-Nov-08 03:59N 52°28' E 004°36'0 0.0
2017-Nov-08 03:29N 52°28' E 004°36'0 0.0
2017-Nov-08 02:59N 52°28' E 004°36'0 0.0
2017-Nov-08 02:26N 52°28' E 004°36'0 0.0
2017-Nov-08 01:56N 52°28' E 004°36'0 0.0
2017-Nov-08 01:29N 52°28' E 004°36'0 0.0
2017-Nov-08 00:29N 52°28' E 004°36'0 0.0
2017-Nov-07 23:59N 52°28' E 004°36'0 0.0
2017-Nov-07 23:29N 52°28' E 004°36'0 0.0
2017-Nov-07 22:59N 52°28' E 004°36'0 0.0
2017-Nov-07 22:29N 52°28' E 004°36'0 0.0
2017-Nov-07 21:59N 52°28' E 004°36'0 0.0
2017-Nov-07 21:29N 52°28' E 004°36'0 0.0
2017-Nov-07 20:59N 52°28' E 004°36'0 0.0
2017-Nov-07 20:29N 52°28' E 004°36'0 0.0
2017-Nov-07 19:59N 52°28' E 004°36'0 0.0
2017-Nov-07 19:29N 52°28' E 004°36'0 0.0
2017-Nov-07 18:59N 52°28' E 004°36'0 0.0
2017-Nov-07 18:26N 52°28' E 004°36'0 0.0
2017-Nov-07 17:59N 52°28' E 004°36'0 0.0
2017-Nov-07 17:29N 52°28' E 004°36'0 0.0
2017-Nov-07 16:59N 52°28' E 004°36'0 0.0
2017-Nov-07 16:29N 52°28' E 004°36'0 0.0
2017-Nov-07 15:59N 52°28' E 004°36'0 0.0
2017-Nov-07 15:20N 52°28' E 004°36'0 0.0
2017-Nov-07 14:59N 52°28' E 004°36'0 0.0
2017-Nov-07 14:26N 52°28' E 004°36'0 0.0
2017-Nov-07 13:59N 52°28' E 004°36'0 0.0
2017-Nov-07 13:29N 52°28' E 004°36'0 0.0
2017-Nov-07 12:59N 52°28' E 004°36'0 0.0
2017-Nov-07 12:26N 52°28' E 004°36'0 0.0
2017-Nov-07 11:56N 52°28' E 004°36'0 0.0
2017-Nov-07 11:29N 52°28' E 004°36'0 0.0
2017-Nov-07 10:59N 52°28' E 004°36'0 0.0
2017-Nov-07 10:29N 52°28' E 004°36'0 0.0
2017-Nov-07 09:59N 52°28' E 004°36'0 0.0
2017-Nov-07 09:29N 52°28' E 004°36'0 0.0
2017-Nov-07 08:56N 52°28' E 004°36'0 0.0
2017-Nov-07 08:29N 52°28' E 004°36'0 0.0
2017-Nov-07 07:53N 52°28' E 004°36'0 0.0
2017-Nov-07 06:59N 52°28' E 004°36'0 0.0
2017-Nov-07 06:23N 52°28' E 004°36'0 0.0
2017-Nov-07 05:59N 52°28' E 004°36'0 0.0
2017-Nov-07 05:29N 52°28' E 004°36'0 0.0
2017-Nov-07 04:59N 52°28' E 004°36'0 0.0
2017-Nov-07 04:29N 52°28' E 004°36'0 0.0
2017-Nov-07 03:59N 52°28' E 004°36'0 0.0
2017-Nov-07 03:29N 52°28' E 004°36'0 0.0
2017-Nov-07 02:59N 52°28' E 004°36'0 0.0
2017-Nov-07 02:29N 52°28' E 004°36'0 0.0
2017-Nov-07 01:59N 52°28' E 004°36'0 0.0
2017-Nov-07 01:29N 52°28' E 004°36'0 0.0
2017-Nov-07 00:59N 52°28' E 004°36'0 0.0
2017-Nov-07 00:29N 52°28' E 004°36'0 0.0
2017-Nov-06 23:59N 52°28' E 004°36'0 0.0
2017-Nov-06 23:29N 52°28' E 004°36'0 0.0
2017-Nov-06 22:59N 52°28' E 004°36'0 0.0
2017-Nov-06 22:26N 52°28' E 004°36'0 0.0
2017-Nov-06 21:59N 52°28' E 004°36'0 0.0
2017-Nov-06 21:29N 52°28' E 004°36'0 0.0
2017-Nov-06 20:56N 52°28' E 004°36'0 0.0
2017-Nov-06 20:29N 52°28' E 004°36'0 0.0
2017-Nov-06 02:29N 52°28' E 004°36'0 0.0
2017-Nov-06 01:59N 52°28' E 004°36'0 0.0
2017-Nov-06 01:29N 52°28' E 004°36'0 0.0
2017-Nov-06 00:59N 52°28' E 004°36'0 0.0
2017-Nov-06 00:29N 52°28' E 004°36'0 0.0
2017-Nov-05 23:59N 52°28' E 004°36'0 0.0
2017-Nov-05 23:29N 52°28' E 004°36'0 0.0
2017-Nov-05 22:59N 52°28' E 004°36'0 0.0
2017-Nov-05 21:59N 52°28' E 004°36'0 0.0
2017-Nov-05 21:29N 52°28' E 004°36'0 0.0
2017-Nov-05 20:59N 52°28' E 004°36'0 0.0
2017-Nov-05 20:26N 52°28' E 004°36'0 0.0
2017-Nov-05 19:59N 52°28' E 004°36'0 0.0
2017-Nov-05 19:29N 52°28' E 004°36'0 0.0
2017-Nov-05 18:59N 52°28' E 004°36'0 0.0
2017-Nov-05 18:29N 52°28' E 004°36'0 0.0
2017-Nov-05 17:59N 52°28' E 004°36'0 0.0
2017-Nov-05 17:29N 52°28' E 004°36'0 0.0
2017-Nov-05 16:59N 52°28' E 004°36'0 0.0
2017-Nov-05 16:29N 52°28' E 004°36'0 0.0
2017-Nov-05 15:59N 52°28' E 004°36'0 0.0
2017-Nov-05 15:29N 52°28' E 004°36'0 0.0
2017-Nov-05 14:59N 52°28' E 004°36'0 0.0
2017-Nov-05 14:29N 52°28' E 004°36'0 0.0
2017-Nov-05 13:59N 52°28' E 004°36'0 0.0
2017-Nov-05 13:29N 52°28' E 004°36'0 0.0
2017-Nov-05 12:59N 52°28' E 004°36'0 0.0
2017-Nov-05 12:29N 52°28' E 004°36'0 0.0
2017-Nov-05 11:59N 52°28' E 004°36'0 0.0
2017-Nov-05 11:29N 52°28' E 004°36'0 0.0
2017-Nov-05 10:59N 52°28' E 004°36'0 0.0
2017-Nov-05 10:29N 52°28' E 004°36'0 0.0
2017-Nov-05 09:59N 52°28' E 004°36'0 0.0
2017-Nov-05 09:29N 52°28' E 004°36'0 0.0
2017-Nov-05 08:59N 52°28' E 004°36'0 0.0
2017-Nov-05 08:29N 52°28' E 004°36'0 0.0
2017-Nov-05 07:59N 52°28' E 004°36'0 0.0
2017-Nov-05 06:59N 52°28' E 004°36'0 0.0
2017-Nov-05 06:29N 52°28' E 004°36'0 0.0
2017-Nov-05 05:56N 52°28' E 004°36'0 0.0
2017-Nov-05 05:29N 52°28' E 004°36'0 0.0
2017-Nov-05 04:56N 52°28' E 004°36'0 0.0
2017-Nov-05 04:29N 52°28' E 004°36'0 0.0
2017-Nov-05 03:59N 52°28' E 004°36'0 0.0
2017-Nov-05 03:29N 52°28' E 004°36'0 0.0
2017-Nov-05 02:59N 52°28' E 004°36'0 0.0
2017-Nov-05 02:29N 52°28' E 004°36'0 0.0
2017-Nov-05 01:59N 52°28' E 004°36'0 0.0
2017-Nov-05 01:29N 52°28' E 004°36'0 0.0
2017-Nov-05 00:59N 52°28' E 004°36'0 0.0
2017-Nov-05 00:26N 52°28' E 004°36'0 0.0
2017-Nov-04 23:59N 52°28' E 004°36'0 0.0
2017-Nov-04 23:29N 52°28' E 004°36'0 0.0
2017-Nov-04 22:56N 52°28' E 004°36'0 0.0
2017-Nov-04 22:29N 52°28' E 004°36'0 0.0
2017-Nov-04 21:59N 52°28' E 004°36'0 0.0
2017-Nov-04 21:23N 52°28' E 004°36'0 0.8
2017-Nov-04 21:00N 52°28' E 004°36'2 3.0
2017-Nov-04 20:30N 52°28' E 004°34'4 8.5
2017-Nov-04 20:00N 52°28' E 004°27'3 6.6
2017-Nov-04 19:30N 52°28' E 004°21'2 3.0
2017-Nov-04 19:00N 52°28' E 004°19'3 6.6
2017-Nov-04 18:30N 52°29' E 004°14'510.6
2017-Nov-04 18:00N 52°28' E 004°05'5 9.8
2017-Nov-04 17:30N 52°26' E 003°58'0 0.2
2017-Nov-04 16:58N 52°26' E 003°58'0 0.1
2017-Nov-04 16:28N 52°26' E 003°58'0 0.0
2017-Nov-04 15:37N 52°26' E 003°58'0 0.1
2017-Nov-04 15:25N 52°26' E 003°58'0 0.1
2017-Nov-04 14:55N 52°26' E 003°58'0 0.1
2017-Nov-04 14:28N 52°26' E 003°58'0 0.1
2017-Nov-04 13:58N 52°26' E 003°58'0 0.0
2017-Nov-04 13:28N 52°26' E 003°58'0 0.0
2017-Nov-04 12:58N 52°26' E 003°58'0 0.0
2017-Nov-04 12:22N 52°26' E 003°58'0 0.1
2017-Nov-04 11:58N 52°26' E 003°57'0 0.0
2017-Nov-04 11:28N 52°26' E 003°57'0 0.2
2017-Nov-04 10:58N 52°26' E 003°57'0 0.1
2017-Nov-04 10:28N 52°26' E 003°57'0 0.1
2017-Nov-04 09:58N 52°26' E 003°57'0 0.1
2017-Nov-04 09:28N 52°26' E 003°57'0 0.1
2017-Nov-04 09:00N 52°26' E 003°57'2 3.1
2017-Nov-04 08:30N 52°26' E 003°55'34 7.6
2017-Nov-04 04:04N 52°38' E 003°03'1 8.5
2017-Nov-04 03:59N 52°39' E 003°03'4 8.4
2017-Nov-04 03:30N 52°43' E 003°01'111 5.0
2017-Nov-03 05:13N 53°33' E 000°15'1 5.7
2017-Nov-03 05:00N 53°33' E 000°13'611.2
2017-Nov-03 04:30N 53°35' E 000°04'612.0
2017-Nov-03 04:00N 53°37' W 000°05'4 7.3
2017-Nov-03 03:30N 53°38' W 000°11'0 0.6
2017-Nov-03 03:00N 53°38' W 000°12'0 0.0
2017-Nov-03 00:56N 53°38' W 000°12'0 0.0
2017-Nov-03 00:14N 53°38' W 000°12'0 0.0
2017-Nov-02 23:56N 53°38' W 000°12'0 0.0
2017-Nov-02 23:02N 53°38' W 000°12'0 0.0
2017-Nov-02 22:50N 53°38' W 000°12'0 0.0
2017-Nov-02 21:50N 53°38' W 000°12'0 0.0
2017-Nov-02 21:26N 53°38' W 000°12'0 0.0
2017-Nov-02 18:50N 53°38' W 000°12'0 0.0
2017-Nov-02 15:38N 53°38' W 000°12'0 0.0
2017-Nov-02 15:08N 53°38' W 000°12'0 0.0
2017-Nov-02 14:47N 53°38' W 000°12'0 0.0
2017-Nov-02 14:26N 53°38' W 000°12'0 0.0
2017-Nov-02 13:02N 53°38' W 000°12'0 0.0
2017-Nov-02 12:50N 53°38' W 000°12'0 0.0
2017-Nov-02 12:29N 53°38' W 000°12'0 0.0
2017-Nov-02 11:47N 53°38' W 000°12'0 0.0
2017-Nov-02 11:29N 53°38' W 000°12'0 0.0
2017-Nov-02 10:56N 53°38' W 000°12'0 0.0
2017-Nov-02 10:29N 53°38' W 000°12'0 0.0
2017-Nov-02 09:56N 53°38' W 000°12'0 0.0
2017-Nov-02 09:26N 53°38' W 000°12'0 0.0
2017-Nov-02 08:56N 53°38' W 000°12'0 0.0
2017-Nov-02 08:23N 53°38' W 000°12'0 0.0
2017-Nov-02 07:59N 53°38' W 000°12'0 0.0
2017-Nov-02 07:20N 53°38' W 000°12'0 0.0
2017-Nov-02 06:44N 53°38' W 000°12'0 0.0
2017-Nov-02 06:26N 53°38' W 000°12'0 0.0
2017-Nov-02 05:59N 53°38' W 000°12'0 0.0
2017-Nov-02 05:26N 53°38' W 000°12'0 0.0
2017-Nov-02 04:56N 53°38' W 000°12'0 0.0
2017-Nov-02 04:26N 53°38' W 000°12'0 0.0
2017-Nov-02 03:56N 53°38' W 000°12'0 0.0
2017-Nov-02 03:14N 53°38' W 000°12'0 0.0
2017-Nov-02 02:56N 53°38' W 000°12'0 0.0
2017-Nov-02 02:29N 53°38' W 000°12'0 0.0
2017-Nov-02 01:59N 53°38' W 000°12'0 0.0
2017-Nov-02 01:26N 53°38' W 000°12'0 0.0
2017-Nov-02 00:56N 53°38' W 000°12'0 0.0
2017-Nov-02 00:14N 53°38' W 000°12'0 0.0
2017-Nov-01 23:56N 53°38' W 000°12'0 0.0
2017-Nov-01 23:26N 53°38' W 000°12'0 0.0
2017-Nov-01 22:56N 53°38' W 000°12'0 0.0
2017-Nov-01 22:26N 53°38' W 000°12'0 0.0
2017-Nov-01 21:50N 53°38' W 000°12'0 0.0
2017-Nov-01 21:26N 53°38' W 000°12'0 0.0
2017-Nov-01 20:44N 53°38' W 000°12'0 0.0
2017-Nov-01 20:14N 53°38' W 000°12'0 0.0
2017-Nov-01 18:20N 53°38' W 000°12'0 0.0
2017-Nov-01 00:47N 53°38' W 000°12'0 0.0
2017-Oct-31 23:41N 53°38' W 000°12'0 0.0
2017-Oct-31 23:23N 53°38' W 000°12'0 0.0
2017-Oct-31 22:53N 53°38' W 000°12'0 0.0
2017-Oct-31 21:05N 53°38' W 000°12'0 0.0
2017-Oct-31 20:59N 53°38' W 000°12'0 0.0
2017-Oct-31 20:14N 53°38' W 000°12'0 0.0
2017-Oct-31 19:56N 53°38' W 000°12'0 0.0
2017-Oct-31 19:17N 53°38' W 000°12'0 0.0
2017-Oct-31 18:44N 53°38' W 000°12'0 0.0
2017-Oct-31 17:26N 53°38' W 000°12'0 0.0
2017-Oct-31 14:35N 53°38' W 000°12'0 0.0
2017-Oct-31 14:08N 53°38' W 000°12'0 0.0
2017-Oct-31 13:56N 53°38' W 000°12'0 0.0
2017-Oct-31 13:14N 53°38' W 000°12'0 0.0
2017-Oct-31 12:44N 53°38' W 000°12'0 0.0
2017-Oct-31 12:29N 53°38' W 000°12'0 0.0
2017-Oct-31 11:59N 53°38' W 000°12'0 0.0
2017-Oct-31 11:26N 53°38' W 000°12'0 0.0
2017-Oct-31 10:59N 53°38' W 000°12'0 0.0
2017-Oct-31 10:23N 53°38' W 000°12'0 0.0
2017-Oct-31 09:23N 53°38' W 000°12'0 0.0
2017-Oct-31 08:59N 53°38' W 000°12'0 0.0
2017-Oct-31 08:29N 53°38' W 000°12'0 0.0
2017-Oct-31 07:56N 53°38' W 000°12'0 0.0
2017-Oct-31 07:26N 53°38' W 000°12'0 0.0
2017-Oct-31 06:56N 53°38' W 000°12'0 0.0
2017-Oct-31 06:23N 53°38' W 000°12'0 0.0
2017-Oct-31 05:53N 53°38' W 000°12'0 0.0
2017-Oct-31 05:29N 53°38' W 000°12'0 0.0
2017-Oct-31 04:56N 53°38' W 000°12'0 0.0
2017-Oct-31 04:29N 53°38' W 000°12'0 0.0
2017-Oct-31 03:56N 53°38' W 000°12'0 0.0
2017-Oct-31 03:29N 53°38' W 000°12'0 0.0
2017-Oct-31 02:59N 53°38' W 000°12'0 0.0
2017-Oct-31 02:29N 53°38' W 000°12'0 0.0
2017-Oct-31 01:59N 53°38' W 000°12'0 0.0
2017-Oct-31 01:29N 53°38' W 000°12'0 0.0
2017-Oct-31 00:59N 53°38' W 000°12'0 0.0
2017-Oct-31 00:29N 53°38' W 000°12'0 0.0
2017-Oct-30 23:59N 53°38' W 000°12'  
Track history (hours):
 
Tides and Currents Weather Stations Pressure Air Temp Water Temp Dewpoint Dewpoint Depression Visibility Wind Speed Wind Dir Waves Ship Positions

Drawsko

Last reported at 2017-Nov-09 23:59 UTC. Time now 2017-Nov-19 18:25 UTC.
Position N 49°53' W 004°13'.
Warning: this ship's position is 9 days out of date.

Length 189 m; draft 8 m.

Type: Cargo ship. MMSI: 311017900.

Date/timePositionNaut miles runAvg speedWind from/ knotsBaromVisibWave heightAir tempDewpointWater temp
2017-Nov-09 23:59N 49°53' W 004°13'611.6
2017-Nov-09 23:26N 49°53' W 004°03'511.3
2017-Nov-09 23:00N 49°54' W 003°56'1211.1
2017-Nov-09 21:56N 49°55' W 003°37'511.0
2017-Nov-09 21:29N 49°56' W 003°30'911.4
2017-Nov-09 20:40N 49°57' W 003°15'211.8
2017-Nov-09 20:30N 49°57' W 003°13'611.9
2017-Nov-09 20:00N 49°58' W 003°03'612.6
2017-Nov-09 19:30N 49°59' W 002°54'1013.5
2017-Nov-09 18:45N 50°02' W 002°38'314.3
2017-Nov-09 18:30N 50°03' W 002°33'2215.2
2017-Nov-09 17:04N 50°09' W 002°01'115.3
2017-Nov-09 17:00N 50°10' W 001°59'815.2
2017-Nov-09 16:30N 50°12' W 001°48'714.6
2017-Nov-09 16:00N 50°14' W 001°37'713.9
2017-Nov-09 15:31N 50°16' W 001°26'913.1
2017-Nov-09 14:47N 50°18' W 001°12'3510.4
2017-Nov-09 11:24N 50°27' W 000°19'410.3
2017-Nov-09 11:00N 50°28' W 000°12'510.7
2017-Nov-09 10:30N 50°30' W 000°04'611.3
2017-Nov-09 09:58N 50°32' E 000°04'812.0
2017-Nov-09 09:18N 50°34' E 000°17'412.5
2017-Nov-09 08:57N 50°35' E 000°23'613.0
2017-Nov-09 08:30N 50°37' E 000°32'613.1
2017-Nov-09 08:00N 50°40' E 000°41'713.2
2017-Nov-09 07:30N 50°44' E 000°49'712.9
2017-Nov-09 07:00N 50°48' E 000°57'812.6
2017-Nov-09 06:20N 50°54' E 001°08'412.2
2017-Nov-09 05:59N 50°56' E 001°13'511.5
2017-Nov-09 05:30N 50°60' E 001°20'510.8
2017-Nov-09 05:00N 51°03' E 001°26'510.3
2017-Nov-09 04:30N 51°06' E 001°33'5 9.8
2017-Nov-09 04:00N 51°10' E 001°39'510.1
2017-Nov-09 03:30N 51°13' E 001°44'510.5
2017-Nov-09 03:00N 51°17' E 001°49'611.5
2017-Nov-09 02:30N 51°22' E 001°54'612.3
2017-Nov-09 02:00N 51°27' E 001°60'713.2
2017-Nov-09 01:30N 51°33' E 002°06'714.2
2017-Nov-09 01:00N 51°38' E 002°13'8013.1
2017-Nov-08 18:54N 52°31' E 003°51'511.8
2017-Nov-08 18:30N 52°31' E 003°59'510.1
2017-Nov-08 18:00N 52°32' E 004°07'4 9.0
2017-Nov-08 17:30N 52°31' E 004°14'611.5
2017-Nov-08 17:00N 52°30' E 004°23'3 6.0
2017-Nov-08 16:30N 52°29' E 004°28'4 8.1
2017-Nov-08 16:01N 52°28' E 004°34'1 2.4
2017-Nov-08 15:29N 52°28' E 004°36'0 0.0
2017-Nov-08 14:59N 52°28' E 004°36'0 0.0
2017-Nov-08 14:29N 52°28' E 004°36'0 0.0
2017-Nov-08 13:59N 52°28' E 004°36'0 0.0
2017-Nov-08 13:29N 52°28' E 004°36'0 0.0
2017-Nov-08 12:59N 52°28' E 004°36'0 0.0
2017-Nov-08 12:20N 52°28' E 004°36'0 0.0
2017-Nov-08 11:56N 52°28' E 004°36'0 0.0
2017-Nov-08 11:29N 52°28' E 004°36'0 0.0
2017-Nov-08 10:59N 52°28' E 004°36'0 0.0
2017-Nov-08 10:29N 52°28' E 004°36'0 0.0
2017-Nov-08 09:59N 52°28' E 004°36'0 0.0
2017-Nov-08 09:29N 52°28' E 004°36'0 0.0
2017-Nov-08 08:59N 52°28' E 004°36'0 0.0
2017-Nov-08 08:26N 52°28' E 004°36'0 0.0
2017-Nov-08 07:56N 52°28' E 004°36'0 0.0
2017-Nov-08 07:29N 52°28' E 004°36'0 0.0
2017-Nov-08 06:56N 52°28' E 004°36'0 0.0
2017-Nov-08 06:29N 52°28' E 004°36'0 0.0
2017-Nov-08 05:59N 52°28' E 004°36'0 0.0
2017-Nov-08 05:29N 52°28' E 004°36'0 0.0
2017-Nov-08 04:59N 52°28' E 004°36'0 0.0
2017-Nov-08 04:29N 52°28' E 004°36'0 0.0
2017-Nov-08 03:59N 52°28' E 004°36'0 0.0
2017-Nov-08 03:29N 52°28' E 004°36'0 0.0
2017-Nov-08 02:59N 52°28' E 004°36'0 0.0
2017-Nov-08 02:26N 52°28' E 004°36'0 0.0
2017-Nov-08 01:56N 52°28' E 004°36'0 0.0
2017-Nov-08 01:29N 52°28' E 004°36'0 0.0
2017-Nov-08 00:29N 52°28' E 004°36'0 0.0
2017-Nov-07 23:59N 52°28' E 004°36'0 0.0
2017-Nov-07 23:29N 52°28' E 004°36'0 0.0
2017-Nov-07 22:59N 52°28' E 004°36'0 0.0
2017-Nov-07 22:29N 52°28' E 004°36'0 0.0
2017-Nov-07 21:59N 52°28' E 004°36'0 0.0
2017-Nov-07 21:29N 52°28' E 004°36'0 0.0
2017-Nov-07 20:59N 52°28' E 004°36'0 0.0
2017-Nov-07 20:29N 52°28' E 004°36'0 0.0
2017-Nov-07 19:59N 52°28' E 004°36'0 0.0
2017-Nov-07 19:29N 52°28' E 004°36'0 0.0
2017-Nov-07 18:59N 52°28' E 004°36'0 0.0
2017-Nov-07 18:26N 52°28' E 004°36'0 0.0
2017-Nov-07 17:59N 52°28' E 004°36'0 0.0
2017-Nov-07 17:29N 52°28' E 004°36'0 0.0
2017-Nov-07 16:59N 52°28' E 004°36'0 0.0
2017-Nov-07 16:29N 52°28' E 004°36'0 0.0
2017-Nov-07 15:59N 52°28' E 004°36'0 0.0
2017-Nov-07 15:20N 52°28' E 004°36'0 0.0
2017-Nov-07 14:59N 52°28' E 004°36'0 0.0
2017-Nov-07 14:26N 52°28' E 004°36'0 0.0
2017-Nov-07 13:59N 52°28' E 004°36'0 0.0
2017-Nov-07 13:29N 52°28' E 004°36'0 0.0
2017-Nov-07 12:59N 52°28' E 004°36'0 0.0
2017-Nov-07 12:26N 52°28' E 004°36'0 0.0
2017-Nov-07 11:56N 52°28' E 004°36'0 0.0
2017-Nov-07 11:29N 52°28' E 004°36'0 0.0
2017-Nov-07 10:59N 52°28' E 004°36'0 0.0
2017-Nov-07 10:29N 52°28' E 004°36'0 0.0
2017-Nov-07 09:59N 52°28' E 004°36'0 0.0
2017-Nov-07 09:29N 52°28' E 004°36'0 0.0
2017-Nov-07 08:56N 52°28' E 004°36'0 0.0
2017-Nov-07 08:29N 52°28' E 004°36'0 0.0
2017-Nov-07 07:53N 52°28' E 004°36'0 0.0
2017-Nov-07 06:59N 52°28' E 004°36'0 0.0
2017-Nov-07 06:23N 52°28' E 004°36'0 0.0
2017-Nov-07 05:59N 52°28' E 004°36'0 0.0
2017-Nov-07 05:29N 52°28' E 004°36'0 0.0
2017-Nov-07 04:59N 52°28' E 004°36'0 0.0
2017-Nov-07 04:29N 52°28' E 004°36'0 0.0
2017-Nov-07 03:59N 52°28' E 004°36'0 0.0
2017-Nov-07 03:29N 52°28' E 004°36'0 0.0
2017-Nov-07 02:59N 52°28' E 004°36'0 0.0
2017-Nov-07 02:29N 52°28' E 004°36'0 0.0
2017-Nov-07 01:59N 52°28' E 004°36'0 0.0
2017-Nov-07 01:29N 52°28' E 004°36'0 0.0
2017-Nov-07 00:59N 52°28' E 004°36'0 0.0
2017-Nov-07 00:29N 52°28' E 004°36'0 0.0
2017-Nov-06 23:59N 52°28' E 004°36'0 0.0
2017-Nov-06 23:29N 52°28' E 004°36'0 0.0
2017-Nov-06 22:59N 52°28' E 004°36'0 0.0
2017-Nov-06 22:26N 52°28' E 004°36'0 0.0
2017-Nov-06 21:59N 52°28' E 004°36'0 0.0
2017-Nov-06 21:29N 52°28' E 004°36'0 0.0
2017-Nov-06 20:56N 52°28' E 004°36'0 0.0
2017-Nov-06 20:29N 52°28' E 004°36'0 0.0
2017-Nov-06 02:29N 52°28' E 004°36'0 0.0
2017-Nov-06 01:59N 52°28' E 004°36'0 0.0
2017-Nov-06 01:29N 52°28' E 004°36'0 0.0
2017-Nov-06 00:59N 52°28' E 004°36'0 0.0
2017-Nov-06 00:29N 52°28' E 004°36'0 0.0
2017-Nov-05 23:59N 52°28' E 004°36'0 0.0
2017-Nov-05 23:29N 52°28' E 004°36'0 0.0
2017-Nov-05 22:59N 52°28' E 004°36'0 0.0
2017-Nov-05 21:59N 52°28' E 004°36'0 0.0
2017-Nov-05 21:29N 52°28' E 004°36'0 0.0
2017-Nov-05 20:59N 52°28' E 004°36'0 0.0
2017-Nov-05 20:26N 52°28' E 004°36'0 0.0
2017-Nov-05 19:59N 52°28' E 004°36'0 0.0
2017-Nov-05 19:29N 52°28' E 004°36'0 0.0
2017-Nov-05 18:59N 52°28' E 004°36'0 0.0
2017-Nov-05 18:29N 52°28' E 004°36'0 0.0
2017-Nov-05 17:59N 52°28' E 004°36'0 0.0
2017-Nov-05 17:29N 52°28' E 004°36'0 0.0
2017-Nov-05 16:59N 52°28' E 004°36'0 0.0
2017-Nov-05 16:29N 52°28' E 004°36'0 0.0
2017-Nov-05 15:59N 52°28' E 004°36'0 0.0
2017-Nov-05 15:29N 52°28' E 004°36'0 0.0
2017-Nov-05 14:59N 52°28' E 004°36'0 0.0
2017-Nov-05 14:29N 52°28' E 004°36'0 0.0
2017-Nov-05 13:59N 52°28' E 004°36'0 0.0
2017-Nov-05 13:29N 52°28' E 004°36'0 0.0
2017-Nov-05 12:59N 52°28' E 004°36'0 0.0
2017-Nov-05 12:29N 52°28' E 004°36'0 0.0
2017-Nov-05 11:59N 52°28' E 004°36'0 0.0
2017-Nov-05 11:29N 52°28' E 004°36'0 0.0
2017-Nov-05 10:59N 52°28' E 004°36'0 0.0
2017-Nov-05 10:29N 52°28' E 004°36'0 0.0
2017-Nov-05 09:59N 52°28' E 004°36'0 0.0
2017-Nov-05 09:29N 52°28' E 004°36'0 0.0
2017-Nov-05 08:59N 52°28' E 004°36'0 0.0
2017-Nov-05 08:29N 52°28' E 004°36'0 0.0
2017-Nov-05 07:59N 52°28' E 004°36'0 0.0
2017-Nov-05 06:59N 52°28' E 004°36'0 0.0
2017-Nov-05 06:29N 52°28' E 004°36'0 0.0
2017-Nov-05 05:56N 52°28' E 004°36'0 0.0
2017-Nov-05 05:29N 52°28' E 004°36'0 0.0
2017-Nov-05 04:56N 52°28' E 004°36'0 0.0
2017-Nov-05 04:29N 52°28' E 004°36'0 0.0
2017-Nov-05 03:59N 52°28' E 004°36'0 0.0
2017-Nov-05 03:29N 52°28' E 004°36'0 0.0
2017-Nov-05 02:59N 52°28' E 004°36'0 0.0
2017-Nov-05 02:29N 52°28' E 004°36'0 0.0
2017-Nov-05 01:59N 52°28' E 004°36'0 0.0
2017-Nov-05 01:29N 52°28' E 004°36'0 0.0
2017-Nov-05 00:59N 52°28' E 004°36'0 0.0
2017-Nov-05 00:26N 52°28' E 004°36'0 0.0
2017-Nov-04 23:59N 52°28' E 004°36'0 0.0
2017-Nov-04 23:29N 52°28' E 004°36'0 0.0
2017-Nov-04 22:56N 52°28' E 004°36'0 0.0
2017-Nov-04 22:29N 52°28' E 004°36'0 0.0
2017-Nov-04 21:59N 52°28' E 004°36'0 0.0
2017-Nov-04 21:23N 52°28' E 004°36'0 0.8
2017-Nov-04 21:00N 52°28' E 004°36'2 3.0
2017-Nov-04 20:30N 52°28' E 004°34'4 8.5
2017-Nov-04 20:00N 52°28' E 004°27'3 6.6
2017-Nov-04 19:30N 52°28' E 004°21'2 3.0
2017-Nov-04 19:00N 52°28' E 004°19'3 6.6
2017-Nov-04 18:30N 52°29' E 004°14'510.6
2017-Nov-04 18:00N 52°28' E 004°05'5 9.8
2017-Nov-04 17:30N 52°26' E 003°58'0 0.2
2017-Nov-04 16:58N 52°26' E 003°58'0 0.1
2017-Nov-04 16:28N 52°26' E 003°58'0 0.0
2017-Nov-04 15:37N 52°26' E 003°58'0 0.1
2017-Nov-04 15:25N 52°26' E 003°58'0 0.1
2017-Nov-04 14:55N 52°26' E 003°58'0 0.1
2017-Nov-04 14:28N 52°26' E 003°58'0 0.1
2017-Nov-04 13:58N 52°26' E 003°58'0 0.0
2017-Nov-04 13:28N 52°26' E 003°58'0 0.0
2017-Nov-04 12:58N 52°26' E 003°58'0 0.0
2017-Nov-04 12:22N 52°26' E 003°58'0 0.1
2017-Nov-04 11:58N 52°26' E 003°57'0 0.0
2017-Nov-04 11:28N 52°26' E 003°57'0 0.2
2017-Nov-04 10:58N 52°26' E 003°57'0 0.1
2017-Nov-04 10:28N 52°26' E 003°57'0 0.1
2017-Nov-04 09:58N 52°26' E 003°57'0 0.1
2017-Nov-04 09:28N 52°26' E 003°57'0 0.1
2017-Nov-04 09:00N 52°26' E 003°57'2 3.1
2017-Nov-04 08:30N 52°26' E 003°55'34 7.6
2017-Nov-04 04:04N 52°38' E 003°03'1 8.5
2017-Nov-04 03:59N 52°39' E 003°03'4 8.4
2017-Nov-04 03:30N 52°43' E 003°01'111 5.0
2017-Nov-03 05:13N 53°33' E 000°15'1 5.7
2017-Nov-03 05:00N 53°33' E 000°13'611.2
2017-Nov-03 04:30N 53°35' E 000°04'612.0
2017-Nov-03 04:00N 53°37' W 000°05'4 7.3
2017-Nov-03 03:30N 53°38' W 000°11'0 0.6
2017-Nov-03 03:00N 53°38' W 000°12'0 0.0
2017-Nov-03 00:56N 53°38' W 000°12'0 0.0
2017-Nov-03 00:14N 53°38' W 000°12'0 0.0
2017-Nov-02 23:56N 53°38' W 000°12'0 0.0
2017-Nov-02 23:02N 53°38' W 000°12'0 0.0
2017-Nov-02 22:50N 53°38' W 000°12'0 0.0
2017-Nov-02 21:50N 53°38' W 000°12'0 0.0
2017-Nov-02 21:26N 53°38' W 000°12'0 0.0
2017-Nov-02 18:50N 53°38' W 000°12'0 0.0
2017-Nov-02 15:38N 53°38' W 000°12'0 0.0
2017-Nov-02 15:08N 53°38' W 000°12'0 0.0
2017-Nov-02 14:47N 53°38' W 000°12'0 0.0
2017-Nov-02 14:26N 53°38' W 000°12'0 0.0
2017-Nov-02 13:02N 53°38' W 000°12'0 0.0
2017-Nov-02 12:50N 53°38' W 000°12'0 0.0
2017-Nov-02 12:29N 53°38' W 000°12'0 0.0
2017-Nov-02 11:47N 53°38' W 000°12'0 0.0
2017-Nov-02 11:29N 53°38' W 000°12'0 0.0
2017-Nov-02 10:56N 53°38' W 000°12'0 0.0
2017-Nov-02 10:29N 53°38' W 000°12'0 0.0
2017-Nov-02 09:56N 53°38' W 000°12'0 0.0
2017-Nov-02 09:26N 53°38' W 000°12'0 0.0
2017-Nov-02 08:56N 53°38' W 000°12'0 0.0
2017-Nov-02 08:23N 53°38' W 000°12'0 0.0
2017-Nov-02 07:59N 53°38' W 000°12'0 0.0
2017-Nov-02 07:20N 53°38' W 000°12'0 0.0
2017-Nov-02 06:44N 53°38' W 000°12'0 0.0
2017-Nov-02 06:26N 53°38' W 000°12'0 0.0
2017-Nov-02 05:59N 53°38' W 000°12'0 0.0
2017-Nov-02 05:26N 53°38' W 000°12'0 0.0
2017-Nov-02 04:56N 53°38' W 000°12'0 0.0
2017-Nov-02 04:26N 53°38' W 000°12'0 0.0
2017-Nov-02 03:56N 53°38' W 000°12'0 0.0
2017-Nov-02 03:14N 53°38' W 000°12'0 0.0
2017-Nov-02 02:56N 53°38' W 000°12'0 0.0
2017-Nov-02 02:29N 53°38' W 000°12'0 0.0
2017-Nov-02 01:59N 53°38' W 000°12'0 0.0
2017-Nov-02 01:26N 53°38' W 000°12'0 0.0
2017-Nov-02 00:56N 53°38' W 000°12'0 0.0
2017-Nov-02 00:14N 53°38' W 000°12'0 0.0
2017-Nov-01 23:56N 53°38' W 000°12'0 0.0
2017-Nov-01 23:26N 53°38' W 000°12'0 0.0
2017-Nov-01 22:56N 53°38' W 000°12'0 0.0
2017-Nov-01 22:26N 53°38' W 000°12'0 0.0
2017-Nov-01 21:50N 53°38' W 000°12'0 0.0
2017-Nov-01 21:26N 53°38' W 000°12'0 0.0
2017-Nov-01 20:44N 53°38' W 000°12'0 0.0
2017-Nov-01 20:14N 53°38' W 000°12'0 0.0
2017-Nov-01 18:20N 53°38' W 000°12'0 0.0
2017-Nov-01 00:47N 53°38' W 000°12'0 0.0
2017-Oct-31 23:41N 53°38' W 000°12'0 0.0
2017-Oct-31 23:23N 53°38' W 000°12'0 0.0
2017-Oct-31 22:53N 53°38' W 000°12'0 0.0
2017-Oct-31 21:05N 53°38' W 000°12'0 0.0
2017-Oct-31 20:59N 53°38' W 000°12'0 0.0
2017-Oct-31 20:14N 53°38' W 000°12'0 0.0
2017-Oct-31 19:56N 53°38' W 000°12'0 0.0
2017-Oct-31 19:17N 53°38' W 000°12'0 0.0
2017-Oct-31 18:44N 53°38' W 000°12'0 0.0
2017-Oct-31 17:26N 53°38' W 000°12'0 0.0
2017-Oct-31 14:35N 53°38' W 000°12'0 0.0
2017-Oct-31 14:08N 53°38' W 000°12'0 0.0
2017-Oct-31 13:56N 53°38' W 000°12'0 0.0
2017-Oct-31 13:14N 53°38' W 000°12'0 0.0
2017-Oct-31 12:44N 53°38' W 000°12'0 0.0
2017-Oct-31 12:29N 53°38' W 000°12'0 0.0
2017-Oct-31 11:59N 53°38' W 000°12'0 0.0
2017-Oct-31 11:26N 53°38' W 000°12'0 0.0
2017-Oct-31 10:59N 53°38' W 000°12'0 0.0
2017-Oct-31 10:23N 53°38' W 000°12'0 0.0
2017-Oct-31 09:23N 53°38' W 000°12'0 0.0
2017-Oct-31 08:59N 53°38' W 000°12'0 0.0
2017-Oct-31 08:29N 53°38' W 000°12'0 0.0
2017-Oct-31 07:56N 53°38' W 000°12'0 0.0
2017-Oct-31 07:26N 53°38' W 000°12'0 0.0
2017-Oct-31 06:56N 53°38' W 000°12'0 0.0
2017-Oct-31 06:23N 53°38' W 000°12'0 0.0
2017-Oct-31 05:53N 53°38' W 000°12'0 0.0
2017-Oct-31 05:29N 53°38' W 000°12'0 0.0
2017-Oct-31 04:56N 53°38' W 000°12'0 0.0
2017-Oct-31 04:29N 53°38' W 000°12'0 0.0
2017-Oct-31 03:56N 53°38' W 000°12'0 0.0
2017-Oct-31 03:29N 53°38' W 000°12'0 0.0
2017-Oct-31 02:59N 53°38' W 000°12'0 0.0
2017-Oct-31 02:29N 53°38' W 000°12'0 0.0
2017-Oct-31 01:59N 53°38' W 000°12'0 0.0
2017-Oct-31 01:29N 53°38' W 000°12'0 0.0
2017-Oct-31 00:59N 53°38' W 000°12'0 0.0
2017-Oct-31 00:29N 53°38' W 000°12'0 0.0
2017-Oct-30 23:59N 53°38' W 000°12'  

Dump ship's entire track history